Dott, West Virginia
Current Conditions -  °F | °C
As of 6:52 PM on Saturday 20 Dec 2014 (Local Time) from KBLF Reporting Station
Haze Haze  
Wind Chill: 31°   Ceiling: 1000
Heat Index: 35°   Visibility: 5mi
Dew Point: 32°   Wind: 5mph
Humidity: 89%   Direction: 260°W
Pressure: 30.17"   Gusts: NA
Location:  37.4544°N, 81.2833°W
Report Text: KBLF 202352Z AUTO 26004KT 5SM BR OVC010 02/00 A3017 RMK AO2 SLP233 60001 T00170000 10022 20017 51012
Loading
Personal Weather Stations






























Interactive Weather Map New forecast layout! Learn more

10-Day Weather Forecast

Advertisements
Track Severe Weather on mobile